Time;durP1;ratioP1;P1;durP2;ratioP2;P2;SDS_P1;SDS_P2;PMS_P1;PMS_P2;Temp;Humidity;BMP_temperature;BMP_pressure;BME280_temperature;BME280_humidity;BME280_pressure;Samples;Min_cycle;Max_cycle;Signal;HPM_P1;HPM_P2
2022/04/22 00:01:46;;;;;;;8.43;4.60;;;;;;;;;;5037210;28;20044;-75
2022/04/22 00:04:14;;;;;;;11.48;4.50;;;;;;;;;;5038529;28;20053;-75
2022/04/22 00:06:41;;;;;;;12.88;5.07;;;;;;;;;;5037969;28;20068;-75
2022/04/22 00:09:08;;;;;;;9.27;4.95;;;;;;;;;;5034736;28;20045;-75
2022/04/22 00:11:35;;;;;;;10.25;5.07;;;;;;;;;;5038724;28;20045;-75
2022/04/22 00:14:03;;;;;;;7.72;5.00;;;;;;;;;;5034931;28;21055;-75
2022/04/22 00:16:31;;;;;;;14.73;5.45;;;;;;;;;;5038165;28;20049;-75
2022/04/22 00:19:01;;;;;;;10.35;5.32;;;;;;;;;;5038490;28;20523;-75
2022/04/22 00:21:28;;;;;;;14.63;5.45;;;;;;;;;;5035765;28;20116;-75
2022/04/22 00:23:55;;;;;;;11.82;5.43;;;;;;;;;;5037169;28;20440;-75
2022/04/22 00:26:23;;;;;;;9.88;5.63;;;;;;;;;;5043242;28;20056;-75
2022/04/22 00:28:50;;;;;;;9.95;5.28;;;;;;;;;;5028365;28;20508;-75
2022/04/22 00:31:17;;;;;;;11.02;5.53;;;;;;;;;;5031394;28;20052;-75
2022/04/22 00:33:44;;;;;;;11.05;5.40;;;;;;;;;;5035119;28;20044;-75
2022/04/22 00:36:13;;;;;;;13.27;5.50;;;;;;;;;;5029950;28;20045;-75
2022/04/22 00:38:41;;;;;;;13.52;5.88;;;;;;;;;;5032518;28;20060;-75
2022/04/22 00:41:08;;;;;;;13.02;6.05;;;;;;;;;;5036854;28;20049;-75
2022/04/22 00:43:42;;;;;;;14.57;5.70;;;;;;;;;;5032366;28;20050;-75
2022/04/22 00:46:10;;;;;;;11.02;5.32;;;;;;;;;;5033093;28;20406;-75
2022/04/22 00:48:37;;;;;;;16.83;6.15;;;;;;;;;;5040002;28;20057;-75
2022/04/22 00:51:05;;;;;;;13.95;5.63;;;;;;;;;;5044370;28;20056;-75
2022/04/22 00:53:35;;;;;;;10.27;5.70;;;;;;;;;;5033196;28;20052;-75
2022/04/22 00:56:04;;;;;;;10.93;5.80;;;;;;;;;;5035943;28;20516;-75
2022/04/22 00:58:31;;;;;;;14.15;5.85;;;;;;;;;;5032655;28;20065;-75
2022/04/22 01:00:59;;;;;;;13.45;6.28;;;;;;;;;;5036827;28;20480;-75
2022/04/22 01:03:26;;;;;;;9.68;5.85;;;;;;;;;;5038100;28;20048;-76
2022/04/22 01:11:23;;;;;;;10.85;5.85;;;;;;;;;;5035482;28;20049;-75
2022/04/22 01:13:51;;;;;;;11.75;5.80;;;;;;;;;;5039238;28;20471;-75
2022/04/22 01:16:18;;;;;;;14.38;6.32;;;;;;;;;;5034461;28;20136;-75
2022/04/22 01:18:45;;;;;;;13.30;6.25;;;;;;;;;;5035575;28;20053;-75
2022/04/22 01:21:14;;;;;;;10.90;6.38;;;;;;;;;;5044147;28;20048;-75
2022/04/22 01:23:41;;;;;;;15.32;6.05;;;;;;;;;;5037319;28;20748;-75
2022/04/22 01:26:08;;;;;;;13.82;6.25;;;;;;;;;;5040660;28;20511;-75
2022/04/22 01:28:36;;;;;;;10.38;6.20;;;;;;;;;;5035910;28;20566;-75
2022/04/22 01:31:03;;;;;;;14.57;6.65;;;;;;;;;;5036165;28;21284;-75
2022/04/22 01:33:30;;;;;;;14.32;6.80;;;;;;;;;;5043177;28;20045;-75
2022/04/22 01:35:58;;;;;;;11.70;6.50;;;;;;;;;;5043639;28;20084;-75
2022/04/22 01:38:26;;;;;;;15.98;6.65;;;;;;;;;;5044256;28;20064;-75
2022/04/22 01:40:54;;;;;;;14.05;6.60;;;;;;;;;;5037482;28;20913;-75
2022/04/22 01:43:22;;;;;;;12.23;7.35;;;;;;;;;;5032996;28;20128;-75
2022/04/22 01:45:52;;;;;;;16.08;6.28;;;;;;;;;;5039219;28;20064;-75
2022/04/22 01:48:20;;;;;;;14.15;6.97;;;;;;;;;;5037188;28;20522;-75
2022/04/22 01:50:47;;;;;;;12.52;6.50;;;;;;;;;;5043232;28;20088;-75
2022/04/22 01:53:14;;;;;;;18.15;6.45;;;;;;;;;;5043322;28;20558;-75
2022/04/22 01:55:43;;;;;;;14.52;7.00;;;;;;;;;;5031519;28;20073;-75
2022/04/22 01:58:10;;;;;;;12.95;6.65;;;;;;;;;;5041865;28;20055;-75
2022/04/22 02:00:37;;;;;;;12.25;6.70;;;;;;;;;;5041649;28;20051;-75
2022/04/22 02:03:04;;;;;;;13.43;6.70;;;;;;;;;;5034287;28;20049;-75
2022/04/22 02:05:33;;;;;;;10.35;5.97;;;;;;;;;;5035832;28;20060;-75
2022/04/22 02:08:01;;;;;;;11.02;6.18;;;;;;;;;;5035883;28;20049;-75
2022/04/22 02:10:28;;;;;;;13.27;6.15;;;;;;;;;;5033925;28;20045;-75
2022/04/22 02:12:56;;;;;;;14.55;5.95;;;;;;;;;;5037642;28;20118;-75
2022/04/22 02:15:26;;;;;;;17.05;6.10;;;;;;;;;;5037353;28;20064;-75
2022/04/22 02:17:53;;;;;;;14.95;6.55;;;;;;;;;;5032838;28;20053;-75
2022/04/22 02:20:21;;;;;;;15.75;6.40;;;;;;;;;;5040350;28;20052;-75
2022/04/22 02:22:48;;;;;;;14.52;6.28;;;;;;;;;;5038925;28;20132;-75
2022/04/22 02:25:15;;;;;;;12.73;6.00;;;;;;;;;;5032181;28;20056;-75
2022/04/22 02:30:29;;;;;;;14.32;6.10;;;;;;;;;;5034672;28;20044;-75
2022/04/22 02:32:57;;;;;;;18.70;6.90;;;;;;;;;;5041895;28;20494;-75
2022/04/22 02:35:24;;;;;;;16.85;7.00;;;;;;;;;;5037694;28;20060;-75
2022/04/22 02:37:52;;;;;;;15.32;6.80;;;;;;;;;;5033680;28;20049;-75
2022/04/22 02:45:47;;;;;;;18.10;7.13;;;;;;;;;;5034195;28;20469;-75
2022/04/22 02:48:14;;;;;;;12.50;5.78;;;;;;;;;;5038370;28;20515;-75
2022/04/22 02:50:42;;;;;;;22.52;6.47;;;;;;;;;;5042074;28;20069;-75
2022/04/22 02:53:09;;;;;;;14.40;5.72;;;;;;;;;;5040738;28;20057;-75
2022/04/22 02:55:38;;;;;;;10.60;5.72;;;;;;;;;;5038067;28;20053;-75
2022/04/22 02:58:07;;;;;;;12.43;5.97;;;;;;;;;;5035808;28;20706;-75
2022/04/22 03:00:34;;;;;;;16.70;6.53;;;;;;;;;;5036274;28;20127;-75
2022/04/22 03:03:04;;;;;;;13.40;5.40;;;;;;;;;;5034765;28;20048;-75
2022/04/22 03:05:31;;;;;;;11.20;5.35;;;;;;;;;;5036898;28;20053;-76
2022/04/22 03:08:00;;;;;;;12.10;5.80;;;;;;;;;;5038512;28;20060;-75
2022/04/22 03:10:28;;;;;;;12.70;5.38;;;;;;;;;;5033484;28;20095;-75
2022/04/22 03:12:55;;;;;;;10.20;5.18;;;;;;;;;;5019034;28;20045;-75
2022/04/22 03:15:22;;;;;;;11.00;5.53;;;;;;;;;;5039708;28;20057;-75
2022/04/22 03:17:50;;;;;;;15.27;5.22;;;;;;;;;;5030413;28;20431;-75
2022/04/22 03:20:18;;;;;;;8.95;5.03;;;;;;;;;;5034332;28;20433;-75
2022/04/22 03:22:46;;;;;;;11.48;4.95;;;;;;;;;;5027442;28;20115;-75
2022/04/22 03:25:13;;;;;;;12.98;5.38;;;;;;;;;;5034689;28;20057;-75
2022/04/22 03:27:40;;;;;;;11.52;5.63;;;;;;;;;;5034176;28;20053;-75
2022/04/22 03:30:08;;;;;;;11.15;5.07;;;;;;;;;;5037331;28;20045;-76
2022/04/22 03:32:35;;;;;;;11.18;5.20;;;;;;;;;;5035805;28;20327;-75
2022/04/22 03:35:02;;;;;;;16.17;5.65;;;;;;;;;;5028107;28;20055;-75
2022/04/22 03:37:31;;;;;;;11.90;4.90;;;;;;;;;;5032426;28;20053;-74
2022/04/22 03:39:58;;;;;;;15.27;5.40;;;;;;;;;;5036257;28;20080;-75
2022/04/22 03:42:27;;;;;;;12.20;5.32;;;;;;;;;;5037295;28;20057;-75
2022/04/22 03:44:55;;;;;;;13.38;5.95;;;;;;;;;;5035674;28;20094;-75
2022/04/22 03:47:23;;;;;;;16.00;5.43;;;;;;;;;;5035124;28;20057;-75
2022/04/22 03:49:50;;;;;;;9.52;4.72;;;;;;;;;;5033680;28;20567;-75
2022/04/22 03:52:17;;;;;;;13.52;5.03;;;;;;;;;;5031881;28;20564;-75
2022/04/22 03:54:46;;;;;;;12.45;4.47;;;;;;;;;;5039905;28;20048;-75
2022/04/22 03:59:58;;;;;;;12.57;4.25;;;;;;;;;;5031768;28;20196;-75
2022/04/22 04:02:25;;;;;;;12.38;4.95;;;;;;;;;;5033543;28;20049;-75
2022/04/22 04:04:53;;;;;;;8.07;5.07;;;;;;;;;;5033509;28;20063;-75
2022/04/22 04:07:20;;;;;;;12.65;4.65;;;;;;;;;;5043935;28;20497;-75
2022/04/22 04:17:59;;;;;;;15.60;4.60;;;;;;;;;;5040690;28;20049;-75
2022/04/22 04:23:17;;;;;;;10.77;4.43;;;;;;;;;;5032772;28;20049;-75
2022/04/22 04:25:48;;;;;;;7.72;4.15;;;;;;;;;;5036390;28;20054;-75
2022/04/22 04:28:17;;;;;;;11.80;4.22;;;;;;;;;;5040043;28;20093;-75
2022/04/22 04:30:46;;;;;;;12.00;4.07;;;;;;;;;;5032967;28;20568;-75
2022/04/22 04:33:14;;;;;;;11.15;4.20;;;;;;;;;;5041102;28;20165;-75
2022/04/22 04:35:46;;;;;;;9.27;4.53;;;;;;;;;;5031493;28;20053;-75
2022/04/22 04:38:14;;;;;;;9.57;4.22;;;;;;;;;;5036653;28;20065;-75
2022/04/22 04:40:41;;;;;;;8.98;4.30;;;;;;;;;;5035942;28;20048;-75
2022/04/22 04:43:10;;;;;;;13.18;4.40;;;;;;;;;;5037079;28;20484;-75
2022/04/22 04:45:37;;;;;;;8.35;3.80;;;;;;;;;;5032819;28;20060;-75
2022/04/22 04:48:05;;;;;;;6.93;3.60;;;;;;;;;;5028824;28;20049;-75
2022/04/22 04:50:32;;;;;;;10.30;4.28;;;;;;;;;;5032274;28;20498;-75
2022/04/22 04:53:00;;;;;;;8.05;3.85;;;;;;;;;;5032438;28;20812;-74
2022/04/22 04:55:27;;;;;;;8.73;3.92;;;;;;;;;;5035401;28;20115;-75
2022/04/22 04:57:54;;;;;;;13.05;3.88;;;;;;;;;;5040465;28;20041;-75
2022/04/22 05:00:23;;;;;;;7.07;3.75;;;;;;;;;;5039699;28;20050;-75
2022/04/22 05:02:50;;;;;;;8.45;3.72;;;;;;;;;;5036140;28;20106;-75
2022/04/22 05:05:18;;;;;;;12.02;3.67;;;;;;;;;;5027062;28;20048;-75
2022/04/22 05:07:49;;;;;;;9.32;3.58;;;;;;;;;;5036715;28;20044;-75
2022/04/22 05:10:18;;;;;;;7.28;3.63;;;;;;;;;;5042113;28;20056;-75
2022/04/22 05:12:45;;;;;;;10.65;3.97;;;;;;;;;;5034644;28;20116;-75
2022/04/22 05:15:13;;;;;;;6.07;3.28;;;;;;;;;;5040069;28;20045;-75
2022/04/22 05:17:43;;;;;;;7.85;3.55;;;;;;;;;;5043758;28;20056;-75
2022/04/22 05:20:10;;;;;;;6.10;3.33;;;;;;;;;;5036916;28;20053;-75
2022/04/22 05:22:38;;;;;;;7.68;3.53;;;;;;;;;;5037808;28;20059;-75
2022/04/22 05:25:06;;;;;;;9.15;3.70;;;;;;;;;;5038830;28;20134;-75
2022/04/22 05:27:33;;;;;;;5.65;3.08;;;;;;;;;;5038604;28;20049;-74
2022/04/22 05:32:48;;;;;;;9.45;3.40;;;;;;;;;;5039988;28;20052;-75
2022/04/22 05:35:16;;;;;;;6.38;2.97;;;;;;;;;;5041947;28;20389;-75
2022/04/22 05:37:44;;;;;;;7.47;3.30;;;;;;;;;;5034403;28;20053;-75
2022/04/22 05:40:12;;;;;;;8.00;3.05;;;;;;;;;;5036625;28;20048;-75
2022/04/22 05:42:39;;;;;;;6.72;2.80;;;;;;;;;;5039615;28;20060;-75
2022/04/22 05:45:07;;;;;;;7.32;3.05;;;;;;;;;;5040712;28;20048;-75
2022/04/22 05:47:34;;;;;;;4.45;2.50;;;;;;;;;;5039627;28;20140;-75
2022/04/22 05:50:04;;;;;;;5.25;2.53;;;;;;;;;;5038664;28;20197;-75
2022/04/22 05:52:32;;;;;;;7.53;2.85;;;;;;;;;;5034243;28;20057;-75
2022/04/22 05:55:02;;;;;;;6.75;2.65;;;;;;;;;;5037692;28;20048;-75
2022/04/22 05:57:30;;;;;;;7.35;2.95;;;;;;;;;;5034545;28;20140;-75
2022/04/22 05:59:57;;;;;;;8.60;2.80;;;;;;;;;;5033633;28;20057;-75
2022/04/22 06:02:24;;;;;;;6.85;2.35;;;;;;;;;;5035082;28;20084;-75
2022/04/22 06:04:51;;;;;;;5.10;2.35;;;;;;;;;;5035620;28;20045;-74
2022/04/22 06:07:20;;;;;;;4.60;1.92;;;;;;;;;;5034649;28;20064;-75
2022/04/22 06:12:32;;;;;;;4.70;2.00;;;;;;;;;;5036741;28;20041;-75
2022/04/22 06:15:02;;;;;;;5.43;2.13;;;;;;;;;;5036548;28;20044;-75
2022/04/22 06:17:29;;;;;;;7.70;2.40;;;;;;;;;;5035495;28;20129;-75
2022/04/22 06:19:56;;;;;;;4.13;1.85;;;;;;;;;;5035705;28;20293;-75
2022/04/22 06:22:26;;;;;;;7.78;2.30;;;;;;;;;;5042630;28;20052;-75
2022/04/22 06:24:53;;;;;;;5.30;2.60;;;;;;;;;;5037763;28;20500;-75
2022/04/22 06:27:24;;;;;;;5.18;2.10;;;;;;;;;;5033093;28;20045;-75
2022/04/22 06:29:52;;;;;;;5.15;2.08;;;;;;;;;;5032914;28;20137;-75
2022/04/22 06:32:20;;;;;;;8.20;2.22;;;;;;;;;;5034823;28;20049;-75
2022/04/22 06:34:48;;;;;;;4.00;1.98;;;;;;;;;;5036535;28;20073;-75
2022/04/22 06:37:16;;;;;;;4.20;1.90;;;;;;;;;;5037312;28;20069;-75
2022/04/22 06:48:00;;;;;;;7.60;2.20;;;;;;;;;;5041121;28;20428;-75
2022/04/22 06:50:28;;;;;;;6.50;2.15;;;;;;;;;;5042567;28;20044;-76
2022/04/22 06:52:55;;;;;;;9.05;1.95;;;;;;;;;;5039987;28;20056;-75
2022/04/22 06:55:25;;;;;;;8.60;1.98;;;;;;;;;;5045894;28;20052;-76
2022/04/22 06:57:52;;;;;;;5.63;2.05;;;;;;;;;;5037501;28;20105;-75
2022/04/22 07:00:20;;;;;;;5.72;1.80;;;;;;;;;;5037199;28;20076;-75
2022/04/22 07:02:48;;;;;;;6.50;1.90;;;;;;;;;;5042455;28;20053;-75
2022/04/22 07:05:16;;;;;;;4.65;1.85;;;;;;;;;;5042577;28;20044;-75
2022/04/22 07:07:43;;;;;;;6.07;2.20;;;;;;;;;;5035502;28;20060;-75
2022/04/22 07:10:11;;;;;;;5.57;2.10;;;;;;;;;;5037165;28;20404;-75
2022/04/22 07:12:39;;;;;;;9.50;2.20;;;;;;;;;;5038424;28;20172;-75
2022/04/22 07:15:07;;;;;;;8.82;2.40;;;;;;;;;;5034350;28;20053;-76
2022/04/22 07:17:35;;;;;;;8.63;1.90;;;;;;;;;;5034263;28;20049;-76
2022/04/22 07:20:03;;;;;;;6.10;1.85;;;;;;;;;;5033372;28;20768;-75
2022/04/22 07:22:31;;;;;;;6.35;2.28;;;;;;;;;;5033176;28;20474;-76
2022/04/22 07:24:58;;;;;;;7.65;2.13;;;;;;;;;;5034306;28;20056;-76
2022/04/22 07:27:28;;;;;;;6.80;2.05;;;;;;;;;;5038609;28;20064;-75
2022/04/22 07:29:58;;;;;;;6.53;1.73;;;;;;;;;;5031309;28;20068;-75
2022/04/22 07:32:26;;;;;;;7.50;1.92;;;;;;;;;;5032343;28;20056;-76
2022/04/22 07:34:54;;;;;;;6.82;1.75;;;;;;;;;;5034388;28;20858;-75
2022/04/22 07:37:22;;;;;;;6.28;2.35;;;;;;;;;;5033157;28;20049;-75
2022/04/22 07:39:49;;;;;;;12.75;2.10;;;;;;;;;;5032753;28;20048;-75
2022/04/22 07:42:18;;;;;;;3.05;1.65;;;;;;;;;;5043329;28;20056;-76
2022/04/22 07:47:48;;;;;;;11.13;2.35;;;;;;;;;;4982385;28;20045;-76
2022/04/22 07:50:18;;;;;;;8.00;2.10;;;;;;;;;;4971732;28;20066;-76
2022/04/22 07:52:46;;;;;;;5.47;2.17;;;;;;;;;;4999618;28;20155;-75
2022/04/22 07:55:13;;;;;;;4.47;2.00;;;;;;;;;;5046554;28;21108;-76
2022/04/22 07:57:41;;;;;;;8.93;2.13;;;;;;;;;;5036425;28;20534;-76
2022/04/22 08:00:09;;;;;;;8.95;2.50;;;;;;;;;;5034330;28;20153;-76
2022/04/22 08:02:40;;;;;;;6.00;2.20;;;;;;;;;;5030478;28;20072;-77
2022/04/22 08:05:09;;;;;;;7.15;2.30;;;;;;;;;;5031254;28;20767;-78
2022/04/22 08:07:37;;;;;;;6.68;2.72;;;;;;;;;;5035365;28;20731;-77
2022/04/22 08:10:04;;;;;;;6.18;2.35;;;;;;;;;;5036962;28;20053;-77
2022/04/22 08:12:31;;;;;;;8.02;2.60;;;;;;;;;;5034200;28;20491;-77
2022/04/22 08:15:00;;;;;;;12.90;3.20;;;;;;;;;;5042111;28;20056;-76
2022/04/22 08:17:27;;;;;;;11.85;2.40;;;;;;;;;;5036093;28;20049;-76
2022/04/22 08:19:54;;;;;;;12.23;3.05;;;;;;;;;;5036743;28;20048;-77
2022/04/22 08:22:24;;;;;;;9.18;2.40;;;;;;;;;;5034593;28;20053;-77
2022/04/22 08:24:51;;;;;;;11.48;2.60;;;;;;;;;;5040759;28;20076;-77
2022/04/22 08:27:18;;;;;;;11.55;2.40;;;;;;;;;;5035133;28;20145;-77
2022/04/22 08:29:48;;;;;;;5.88;2.22;;;;;;;;;;5036819;28;20052;-77
2022/04/22 08:32:15;;;;;;;8.52;2.45;;;;;;;;;;5038721;28;20056;-77
2022/04/22 08:34:43;;;;;;;7.60;2.45;;;;;;;;;;5039047;28;20126;-77
2022/04/22 08:37:10;;;;;;;6.47;2.58;;;;;;;;;;5038021;28;20659;-77
2022/04/22 08:39:39;;;;;;;15.23;2.28;;;;;;;;;;5036073;28;20064;-77
2022/04/22 08:42:06;;;;;;;7.00;2.30;;;;;;;;;;5037952;28;20137;-77
2022/04/22 08:44:37;;;;;;;8.02;2.83;;;;;;;;;;5036826;28;20439;-77
2022/04/22 08:50:01;;;;;;;8.75;2.55;;;;;;;;;;5034431;28;20053;-77
2022/04/22 08:52:31;;;;;;;8.50;2.60;;;;;;;;;;5040026;28;20068;-77
2022/04/22 08:54:59;;;;;;;7.28;2.13;;;;;;;;;;5036853;28;20457;-77
2022/04/22 08:57:29;;;;;;;19.33;2.78;;;;;;;;;;5034648;28;20045;-77
2022/04/22 08:59:59;;;;;;;7.60;2.15;;;;;;;;;;5036242;28;20052;-77
2022/04/22 09:02:26;;;;;;;10.13;2.53;;;;;;;;;;5035133;28;20045;-77
2022/04/22 09:04:54;;;;;;;7.70;2.22;;;;;;;;;;5033885;28;20049;-77
2022/04/22 09:07:22;;;;;;;6.25;2.00;;;;;;;;;;5032601;28;20057;-77
2022/04/22 09:09:50;;;;;;;12.75;2.80;;;;;;;;;;5036803;28;20064;-77
2022/04/22 09:12:21;;;;;;;7.78;2.17;;;;;;;;;;5038432;28;20060;-76
2022/04/22 09:14:49;;;;;;;7.53;2.45;;;;;;;;;;5037812;28;20051;-76
2022/04/22 09:17:18;;;;;;;5.25;2.08;;;;;;;;;;5039520;28;20045;-76
2022/04/22 09:19:45;;;;;;;6.82;2.10;;;;;;;;;;5034176;28;20060;-76
2022/04/22 09:22:12;;;;;;;15.35;2.63;;;;;;;;;;5041570;28;20049;-76
2022/04/22 09:24:47;;;;;;;7.15;2.40;;;;;;;;;;5040747;28;20072;-76
2022/04/22 09:27:14;;;;;;;15.60;3.10;;;;;;;;;;5035129;28;20450;-75
2022/04/22 09:29:45;;;;;;;10.15;2.78;;;;;;;;;;5042237;28;20045;-75
2022/04/22 09:32:12;;;;;;;9.20;2.45;;;;;;;;;;5045440;28;20060;-77
2022/04/22 09:34:42;;;;;;;6.88;2.17;;;;;;;;;;5048299;28;20052;-77
2022/04/22 09:42:50;;;;;;;8.18;2.42;;;;;;;;;;5043272;28;20557;-77
2022/04/22 09:45:19;;;;;;;6.20;2.45;;;;;;;;;;5036685;28;20153;-77
2022/04/22 09:47:57;;;;;;;7.38;2.30;;;;;;;;;;5040611;28;20045;-77
2022/04/22 09:50:40;;;;;;;9.48;2.33;;;;;;;;;;5042089;28;20052;-77
2022/04/22 09:53:07;;;;;;;;;;;;;;;;;;5044148;28;20137;-77
2022/04/22 09:55:37;;;;;;;7.80;2.50;;;;;;;;;;5033922;28;19921;-77
2022/04/22 09:58:05;;;;;;;7.20;2.35;;;;;;;;;;5041090;28;20054;-77
2022/04/22 10:00:34;;;;;;;9.15;2.78;;;;;;;;;;5041388;28;20053;-77
2022/04/22 10:03:01;;;;;;;11.85;2.38;;;;;;;;;;5036143;28;20089;-77
2022/04/22 10:05:31;;;;;;;9.95;3.53;;;;;;;;;;5038234;28;20060;-76
2022/04/22 10:07:59;;;;;;;10.57;2.38;;;;;;;;;;5028210;28;20605;-77
2022/04/22 10:10:30;;;;;;;6.18;2.47;;;;;;;;;;5039039;28;20068;-77
2022/04/22 10:12:58;;;;;;;11.13;2.60;;;;;;;;;;5037422;28;20449;-77
2022/04/22 10:15:27;;;;;;;11.65;2.60;;;;;;;;;;5035407;28;20103;-77
2022/04/22 10:17:56;;;;;;;7.70;2.55;;;;;;;;;;5037165;28;20046;-77
2022/04/22 10:20:25;;;;;;;25.30;2.67;;;;;;;;;;5046107;28;20056;-77
2022/04/22 10:22:52;;;;;;;7.63;2.20;;;;;;;;;;5039309;28;20761;-77
2022/04/22 10:25:20;;;;;;;5.15;2.20;;;;;;;;;;5036682;28;20053;-77
2022/04/22 10:27:47;;;;;;;6.43;2.38;;;;;;;;;;5042537;28;20067;-77
2022/04/22 10:30:15;;;;;;;11.52;2.67;;;;;;;;;;5043283;28;20136;-77
2022/04/22 10:32:45;;;;;;;12.95;2.53;;;;;;;;;;5039311;28;20846;-77
2022/04/22 10:35:14;;;;;;;15.88;2.90;;;;;;;;;;5034786;28;20128;-77
2022/04/22 10:37:43;;;;;;;11.90;3.17;;;;;;;;;;5033613;28;20493;-77
2022/04/22 10:40:18;;;;;;;10.13;2.70;;;;;;;;;;5039530;28;20061;-77
2022/04/22 10:42:47;;;;;;;14.07;2.70;;;;;;;;;;5034453;28;20072;-77
2022/04/22 10:48:00;;;;;;;11.40;3.35;;;;;;;;;;5041708;28;20133;-77
2022/04/22 10:50:30;;;;;;;14.82;3.47;;;;;;;;;;5036256;28;20561;-77
2022/04/22 10:53:01;;;;;;;16.13;3.03;;;;;;;;;;5037718;28;20064;-77
2022/04/22 10:55:30;;;;;;;13.27;3.47;;;;;;;;;;5034897;28;20084;-77
2022/04/22 10:58:16;;;;;;;11.50;3.30;;;;;;;;;;5038639;28;20384;-77
2022/04/22 11:00:44;;;;;;;10.35;3.35;;;;;;;;;;5037632;28;20057;-76
2022/04/22 11:03:15;;;;;;;11.95;3.00;;;;;;;;;;5037827;28;20693;-77
2022/04/22 11:05:48;;;;;;;12.15;2.70;;;;;;;;;;5035329;28;20629;-77
2022/04/22 11:08:16;;;;;;;;;;;;;;;;;;5040002;28;20493;-77
2022/04/22 11:11:15;;;;;;;10.65;3.35;;;;;;;;;;5046784;28;19924;-77
2022/04/22 11:13:52;;;;;;;15.68;3.53;;;;;;;;;;5043760;28;20764;-78
2022/04/22 11:16:30;;;;;;;13.63;3.13;;;;;;;;;;5042309;28;20481;-77
2022/04/22 11:19:10;;;;;;;15.45;3.58;;;;;;;;;;5046620;28;20076;-77
2022/04/22 11:21:42;;;;;;;13.05;3.63;;;;;;;;;;5032929;28;20052;-77
2022/04/22 11:24:15;;;;;;;13.68;4.07;;;;;;;;;;5042330;28;20134;-77
2022/04/22 11:26:44;;;;;;;12.55;3.60;;;;;;;;;;5036829;28;20041;-77
2022/04/22 11:29:12;;;;;;;12.95;3.38;;;;;;;;;;5043005;28;20076;-77
2022/04/22 11:31:39;;;;;;;13.50;4.00;;;;;;;;;;5034067;28;20140;-77
2022/04/22 11:34:09;;;;;;;11.90;3.58;;;;;;;;;;5039335;28;20060;-78
2022/04/22 11:36:45;;;;;;;10.80;3.58;;;;;;;;;;5038728;28;20443;-78
2022/04/22 11:39:17;;;;;;;7.82;3.25;;;;;;;;;;5049001;28;20502;-78
2022/04/22 11:41:57;;;;;;;14.80;3.92;;;;;;;;;;5039001;28;20834;-77
2022/04/22 11:44:25;;;;;;;23.63;4.35;;;;;;;;;;5035482;28;20072;-78
2022/04/22 11:46:52;;;;;;;51.05;4.95;;;;;;;;;;5038194;28;20479;-78
2022/04/22 11:49:19;;;;;;;9.93;3.88;;;;;;;;;;5037198;28;20064;-78
2022/04/22 11:51:52;;;;;;;9.73;3.60;;;;;;;;;;5040436;28;20053;-77
2022/04/22 11:54:22;;;;;;;13.68;4.05;;;;;;;;;;5040028;28;20128;-78
2022/04/22 11:56:50;;;;;;;7.00;3.70;;;;;;;;;;5037552;28;20076;-78
2022/04/22 11:59:20;;;;;;;10.27;4.03;;;;;;;;;;5033191;28;20053;-77
2022/04/22 12:10:05;;;;;;;7.20;3.45;;;;;;;;;;5039012;28;20065;-77
2022/04/22 12:12:33;;;;;;;8.23;3.58;;;;;;;;;;5042303;28;20508;-78
2022/04/22 12:15:02;;;;;;;10.35;4.30;;;;;;;;;;5038962;28;20060;-77
2022/04/22 12:17:29;;;;;;;10.88;3.80;;;;;;;;;;5034381;28;20080;-77
2022/04/22 12:19:56;;;;;;;11.45;3.88;;;;;;;;;;5041615;28;20058;-77
2022/04/22 12:22:25;;;;;;;12.90;3.97;;;;;;;;;;5040425;28;20110;-77
2022/04/22 12:25:19;;;;;;;10.40;4.38;;;;;;;;;;5037837;28;20522;-77
2022/04/22 12:28:05;;;;;;;15.70;4.30;;;;;;;;;;5025054;28;20143;-78
2022/04/22 12:30:35;;;;;;;10.95;4.10;;;;;;;;;;5040313;28;20052;-77
2022/04/22 12:33:02;;;;;;;10.45;4.03;;;;;;;;;;5029534;28;20069;-77
2022/04/22 12:35:30;;;;;;;8.07;4.03;;;;;;;;;;5033922;28;20067;-77
2022/04/22 12:37:59;;;;;;;9.15;4.25;;;;;;;;;;5040525;28;20056;-77
2022/04/22 12:40:26;;;;;;;7.93;4.25;;;;;;;;;;5038550;28;20963;-77
2022/04/22 12:42:54;;;;;;;8.20;4.03;;;;;;;;;;5040493;28;20131;-77
2022/04/22 12:53:38;;;;;;;9.30;4.30;;;;;;;;;;5043267;28;20057;-77
2022/04/22 12:56:07;;;;;;;10.90;4.55;;;;;;;;;;5045473;28;20056;-77
2022/04/22 12:58:34;;;;;;;13.90;5.03;;;;;;;;;;5043145;28;20056;-77
2022/04/22 13:01:06;;;;;;;13.05;4.57;;;;;;;;;;5047401;28;20297;-77
2022/04/22 13:03:37;;;;;;;12.60;4.53;;;;;;;;;;5042813;28;20053;-77
2022/04/22 13:06:05;;;;;;;11.20;4.63;;;;;;;;;;5049238;28;20049;-77
2022/04/22 13:08:32;;;;;;;14.32;4.28;;;;;;;;;;5044281;28;20048;-77
2022/04/22 13:11:02;;;;;;;16.83;5.05;;;;;;;;;;5037058;28;20053;-77
2022/04/22 13:13:29;;;;;;;10.38;4.15;;;;;;;;;;5042671;28;20045;-77
2022/04/22 13:15:59;;;;;;;11.02;4.78;;;;;;;;;;5045005;28;20045;-77
2022/04/22 13:18:27;;;;;;;12.05;4.95;;;;;;;;;;5042276;28;20057;-77
2022/04/22 13:20:54;;;;;;;11.43;4.57;;;;;;;;;;5041897;28;20063;-77
2022/04/22 13:23:21;;;;;;;13.60;4.63;;;;;;;;;;5040283;28;20056;-77
2022/04/22 13:25:49;;;;;;;12.80;4.32;;;;;;;;;;5036666;28;20048;-77
2022/04/22 13:28:17;;;;;;;10.25;4.25;;;;;;;;;;5043653;28;20530;-77
2022/04/22 13:30:44;;;;;;;8.50;4.32;;;;;;;;;;5043503;28;20484;-77
2022/04/22 13:33:12;;;;;;;10.20;4.30;;;;;;;;;;5039895;28;20052;-76
2022/04/22 13:35:39;;;;;;;10.38;4.47;;;;;;;;;;5039610;28;20538;-77
2022/04/22 13:38:06;;;;;;;10.25;4.75;;;;;;;;;;5041624;28;20073;-77
2022/04/22 13:40:34;;;;;;;8.60;4.75;;;;;;;;;;5038686;28;20057;-77
2022/04/22 13:43:01;;;;;;;14.82;4.38;;;;;;;;;;5039533;28;20122;-77
2022/04/22 13:53:45;;;;;;;10.57;4.53;;;;;;;;;;5041792;28;20052;-77
2022/04/22 13:56:12;;;;;;;12.10;4.03;;;;;;;;;;5046566;28;20476;-74
2022/04/22 13:58:39;;;;;;;12.13;4.95;;;;;;;;;;5046238;28;20045;-76
2022/04/22 14:01:08;;;;;;;12.95;4.60;;;;;;;;;;5044476;28;20064;-76
2022/04/22 14:03:35;;;;;;;10.45;5.30;;;;;;;;;;5046787;28;20403;-76
2022/04/22 14:06:03;;;;;;;14.38;5.45;;;;;;;;;;5039178;28;20694;-76
2022/04/22 14:08:30;;;;;;;11.30;5.03;;;;;;;;;;5038187;28;20061;-76
2022/04/22 14:10:57;;;;;;;16.17;5.22;;;;;;;;;;5045145;28;20045;-77
2022/04/22 14:13:26;;;;;;;11.00;5.28;;;;;;;;;;5045813;28;20063;-77
2022/04/22 14:15:53;;;;;;;17.27;5.30;;;;;;;;;;5044215;28;20072;-77
2022/04/22 14:18:23;;;;;;;17.20;5.10;;;;;;;;;;5043846;28;20198;-77
2022/04/22 14:20:50;;;;;;;10.18;4.78;;;;;;;;;;5040535;28;20520;-77
2022/04/22 14:23:17;;;;;;;15.20;4.80;;;;;;;;;;5037974;28;20053;-76
2022/04/22 14:25:45;;;;;;;18.50;5.75;;;;;;;;;;5041027;28;20178;-76
2022/04/22 14:28:12;;;;;;;10.68;4.68;;;;;;;;;;5037549;28;20045;-76
2022/04/22 14:30:39;;;;;;;22.65;5.53;;;;;;;;;;5047248;28;20728;-76
2022/04/22 14:33:06;;;;;;;12.65;4.97;;;;;;;;;;5035120;28;20076;-76
2022/04/22 14:35:35;;;;;;;7.72;4.70;;;;;;;;;;5041091;28;20420;-76
2022/04/22 14:38:03;;;;;;;10.73;4.80;;;;;;;;;;5028644;28;20057;-76
2022/04/22 14:40:31;;;;;;;13.60;5.18;;;;;;;;;;5038826;28;20051;-76
2022/04/22 14:42:58;;;;;;;9.98;4.40;;;;;;;;;;5037328;28;20053;-76
2022/04/22 14:45:26;;;;;;;15.75;4.70;;;;;;;;;;5037933;28;20060;-77
2022/04/22 14:47:55;;;;;;;9.18;4.57;;;;;;;;;;5043532;28;20045;-77
2022/04/22 14:50:22;;;;;;;9.35;4.65;;;;;;;;;;5040978;28;20088;-77
2022/04/22 14:52:51;;;;;;;7.60;4.32;;;;;;;;;;5043383;28;20057;-77
2022/04/22 14:55:18;;;;;;;10.07;4.95;;;;;;;;;;5040032;28;20407;-77
2022/04/22 14:57:45;;;;;;;11.30;4.60;;;;;;;;;;5041157;28;20049;-76
2022/04/22 15:00:13;;;;;;;9.90;4.60;;;;;;;;;;5035475;28;20067;-76
2022/04/22 15:02:41;;;;;;;12.20;4.72;;;;;;;;;;5041210;28;20080;-76
2022/04/22 15:05:08;;;;;;;9.52;4.72;;;;;;;;;;5033847;28;20064;-76
2022/04/22 15:07:36;;;;;;;7.95;4.80;;;;;;;;;;5040939;28;20057;-76
2022/04/22 15:10:06;;;;;;;10.30;5.28;;;;;;;;;;5034156;28;20054;-76
2022/04/22 15:12:33;;;;;;;14.25;4.72;;;;;;;;;;5040084;28;20076;-76
2022/04/22 15:15:03;;;;;;;13.35;4.90;;;;;;;;;;5040042;28;20807;-76
2022/04/22 15:25:46;;;;;;;11.23;5.10;;;;;;;;;;5036628;28;20081;-76
2022/04/22 15:28:13;;;;;;;13.50;5.28;;;;;;;;;;5036611;28;20045;-76
2022/04/22 15:30:59;;;;;;;11.85;5.15;;;;;;;;;;5035970;28;20067;-76
2022/04/22 15:33:27;;;;;;;10.77;5.65;;;;;;;;;;5042447;28;20056;-76
2022/04/22 15:35:54;;;;;;;11.05;5.40;;;;;;;;;;5042185;28;20051;-76
2022/04/22 15:38:22;;;;;;;13.95;4.82;;;;;;;;;;5034725;28;20056;-76
2022/04/22 15:40:51;;;;;;;10.90;5.43;;;;;;;;;;5044171;28;20061;-76
2022/04/22 15:43:19;;;;;;;12.38;5.15;;;;;;;;;;5041964;28;20493;-76
2022/04/22 15:45:47;;;;;;;13.43;4.90;;;;;;;;;;5034703;28;20131;-76
2022/04/22 15:48:14;;;;;;;12.05;5.70;;;;;;;;;;5037305;28;20049;-76
2022/04/22 15:50:42;;;;;;;11.65;5.13;;;;;;;;;;5036513;28;20111;-76
2022/04/22 15:53:09;;;;;;;9.75;5.45;;;;;;;;;;5039938;28;20122;-76
2022/04/22 15:55:36;;;;;;;13.80;5.53;;;;;;;;;;5043034;28;20068;-76
2022/04/22 15:58:05;;;;;;;11.77;5.13;;;;;;;;;;5037420;28;20060;-76
2022/04/22 16:00:32;;;;;;;15.70;5.35;;;;;;;;;;5036610;28;20057;-76
2022/04/22 16:03:00;;;;;;;9.63;5.00;;;;;;;;;;5038141;28;20049;-76
2022/04/22 16:05:27;;;;;;;13.90;5.15;;;;;;;;;;5041518;28;20056;-76
2022/04/22 16:07:56;;;;;;;10.23;4.75;;;;;;;;;;5033619;28;20434;-76
2022/04/22 16:10:24;;;;;;;15.43;5.57;;;;;;;;;;5043638;28;20099;-75
2022/04/22 16:15:37;;;;;;;10.32;4.82;;;;;;;;;;5039939;28;20060;-74